Terminal Aerodrome Forecast
Issued by NWS Memphis, TN

Home | Current Version | Previous Version | Text Only | Print | Product List | Glossary On
Versions: 1 2 3 4 5 6 7 8 9 10 11 12 13 14 15 16
372
FTUS44 KMEG 240159 AAA
TAFMKL
TAF AMD
KMKL 240159Z 2402/2424 34005KT P6SM BKN035
     FM240300 35003KT P6SM SKC
      TEMPO 2409/2413 3SM BR SCT002
     FM241400 13006KT P6SM FEW250
     FM241900 16009KT P6SM FEW035 SCT250=

USA.gov is the U.S. government's official web portal to all federal, state and local government web resources and services.